createdAt,value
2019-04-14T00:01:23.771Z,69.90
2019-04-14T00:03:57.299Z,70.00
2019-04-14T00:06:26.590Z,69.90
2019-04-14T00:08:56.435Z,70.00
2019-04-14T00:11:25.905Z,70.20
2019-04-14T00:13:56.655Z,70.10
2019-04-14T00:16:24.892Z,70.20
2019-04-14T00:18:53.983Z,70.40
2019-04-14T00:21:23.645Z,70.40
2019-04-14T00:23:52.806Z,70.50
2019-04-14T00:26:29.808Z,70.40
2019-04-14T00:28:59.928Z,70.50
2019-04-14T00:31:28.807Z,70.70
2019-04-14T00:33:58.973Z,70.70
2019-04-14T00:36:29.124Z,70.90
2019-04-14T00:38:59.207Z,71.00
2019-04-14T00:41:41.367Z,71.00
2019-04-14T00:44:10.004Z,71.10
2019-04-14T00:46:56.051Z,71.00
2019-04-14T00:49:26.756Z,71.10
2019-04-14T00:51:54.992Z,71.00
2019-04-14T00:54:25.814Z,71.00
2019-04-14T00:56:54.423Z,71.20
2019-04-14T00:59:22.947Z,71.50
2019-04-14T01:01:52.699Z,71.40
2019-04-14T01:04:21.657Z,71.50
2019-04-14T01:06:51.317Z,71.70
2019-04-14T01:09:21.643Z,71.90
2019-04-14T01:11:50.966Z,71.90
2019-04-14T01:14:21.220Z,72.20
2019-04-14T01:16:51.773Z,72.80
2019-04-14T01:19:20.259Z,72.30
2019-04-14T01:21:48.670Z,72.60
2019-04-14T01:24:18.465Z,72.80
2019-04-14T01:26:47.067Z,72.90
2019-04-14T01:29:16.760Z,73.00
2019-04-14T01:31:45.226Z,73.00
2019-04-14T01:34:13.713Z,73.00
2019-04-14T01:36:43.359Z,73.00
2019-04-14T01:39:13.302Z,72.80
2019-04-14T01:41:41.752Z,72.60
2019-04-14T01:44:11.200Z,72.60
2019-04-14T01:46:39.864Z,72.60
2019-04-14T01:49:09.338Z,72.70
2019-04-14T01:51:40.090Z,72.80
2019-04-14T01:54:14.871Z,72.70
2019-04-14T01:56:47.710Z,72.70
2019-04-14T01:59:17.490Z,72.70
2019-04-14T02:01:47.844Z,72.80
2019-04-14T02:04:18.546Z,72.90
2019-04-14T02:06:48.327Z,73.00
2019-04-14T02:09:16.930Z,73.00
2019-04-14T02:11:46.628Z,73.00
2019-04-14T02:14:15.254Z,73.00
2019-04-14T02:16:48.670Z,73.20
2019-04-14T02:19:15.244Z,73.30
2019-04-14T02:21:43.828Z,73.80
2019-04-14T02:24:13.423Z,73.60
2019-04-14T02:26:42.142Z,73.80
2019-04-14T02:29:10.532Z,73.30
2019-04-14T02:32:07.365Z,73.80
2019-04-14T02:34:42.173Z,73.90
2019-04-14T02:37:10.648Z,73.80
2019-04-14T02:39:39.022Z,73.80
2019-04-14T02:42:20.898Z,73.90
2019-04-14T02:44:41.932Z,73.80
2019-04-14T02:47:18.343Z,73.90
2019-04-14T02:52:11.634Z,74.20
2019-04-14T02:54:59.496Z,74.10
2019-04-14T02:57:23.062Z,74.20
2019-04-14T02:59:47.031Z,74.20
2019-04-14T03:04:45.376Z,74.30
2019-04-14T03:07:16.114Z,74.30
2019-04-14T03:09:41.795Z,74.40
2019-04-14T03:12:11.332Z,74.50
2019-04-14T03:17:21.756Z,75.00
2019-04-14T03:22:37.253Z,76.00
2019-04-14T03:24:55.471Z,75.50
2019-04-14T03:33:24.200Z,75.90
2019-04-14T03:35:58.606Z,75.80
2019-04-14T03:40:27.712Z,74.70
2019-04-14T03:43:03.922Z,73.40
2019-04-14T03:45:35.798Z,72.50
2019-04-14T03:48:31.763Z,72.00
2019-04-14T03:53:03.190Z,71.70
2019-04-14T03:55:15.971Z,72.50
2019-04-14T03:57:32.723Z,73.40
2019-04-14T04:00:01.191Z,74.00
2019-04-14T04:02:29.581Z,74.40
2019-04-14T04:04:58.055Z,74.50
2019-04-14T04:07:27.816Z,74.50
2019-04-14T04:09:58.340Z,74.40
2019-04-14T04:12:27.431Z,74.30
2019-04-14T04:14:55.851Z,73.80
2019-04-14T04:17:36.185Z,73.30
2019-04-14T04:20:11.029Z,73.10
2019-04-14T04:22:43.927Z,72.90
2019-04-14T04:25:26.874Z,72.00
2019-04-14T04:27:56.990Z,70.10
2019-04-14T04:30:29.963Z,67.60
2019-04-14T04:33:13.312Z,64.30
2019-04-14T04:35:43.603Z,62.00
2019-04-14T04:38:16.603Z,61.90
2019-04-14T04:40:46.054Z,59.90
2019-04-14T04:43:14.733Z,59.10
2019-04-14T04:45:43.212Z,59.10
2019-04-14T04:48:11.643Z,59.60
2019-04-14T04:50:43.144Z,61.40
2019-04-14T04:53:11.513Z,62.80
2019-04-14T04:55:40.307Z,63.20
2019-04-14T04:58:10.030Z,62.60
2019-04-14T05:00:39.483Z,62.30
2019-04-14T05:03:08.137Z,60.60
2019-04-14T05:06:06.865Z,59.00
2019-04-14T05:08:37.019Z,57.70
2019-04-14T05:11:14.304Z,58.70
2019-04-14T05:13:44.601Z,60.30
2019-04-14T05:16:13.251Z,61.20
2019-04-14T05:18:43.054Z,62.50
2019-04-14T05:21:12.803Z,63.80
2019-04-14T05:23:41.496Z,64.90
2019-04-14T05:26:11.244Z,65.40
2019-04-14T05:28:39.847Z,65.40
2019-04-14T05:31:09.692Z,65.60
2019-04-14T05:33:38.331Z,66.10
2019-04-14T05:36:06.793Z,65.90
2019-04-14T05:38:35.803Z,66.00
2019-04-14T05:41:05.406Z,66.60
2019-04-14T05:43:40.609Z,66.40
2019-04-14T05:46:03.842Z,66.60
2019-04-14T05:48:33.631Z,66.90
2019-04-14T05:51:04.172Z,67.00
2019-04-14T05:53:32.652Z,66.80
2019-04-14T05:56:03.554Z,66.50
2019-04-14T05:58:32.115Z,66.90
2019-04-14T06:01:02.429Z,66.50
2019-04-14T06:03:32.043Z,66.20
2019-04-14T06:06:00.706Z,66.80
2019-04-14T06:08:30.407Z,67.60
2019-04-14T06:10:59.857Z,66.40
2019-04-14T06:13:28.331Z,65.60
2019-04-14T06:15:56.807Z,65.50
2019-04-14T06:18:25.216Z,65.80
2019-04-14T06:20:54.167Z,65.70
2019-04-14T06:23:22.702Z,65.70
2019-04-14T06:25:51.216Z,65.60
2019-04-14T06:28:19.703Z,65.30
2019-04-14T06:30:58.599Z,65.70
2019-04-14T06:33:31.484Z,65.70
2019-04-14T06:36:18.023Z,65.50
2019-04-14T06:38:48.259Z,65.70
2019-04-14T06:41:18.912Z,65.60
2019-04-14T06:43:49.019Z,65.40
2019-04-14T06:46:17.494Z,64.90
2019-04-14T06:48:46.023Z,64.60
2019-04-14T06:51:14.532Z,64.20
2019-04-14T06:53:43.047Z,64.00
2019-04-14T06:56:11.470Z,63.80
2019-04-14T06:58:39.909Z,63.40
2019-04-14T07:01:08.937Z,63.30
2019-04-14T07:03:37.368Z,62.60
2019-04-14T07:06:05.773Z,62.20
2019-04-14T07:08:34.253Z,61.90
2019-04-14T07:11:02.754Z,61.60
2019-04-14T07:13:31.337Z,61.00
2019-04-14T07:16:00.415Z,60.50
2019-04-14T07:18:29.034Z,60.30
2019-04-14T07:20:57.608Z,60.20
2019-04-14T07:23:26.771Z,59.00
2019-04-14T07:25:55.209Z,57.70
2019-04-14T07:28:25.403Z,57.70
2019-04-14T07:31:10.824Z,58.50
2019-04-14T07:33:40.965Z,58.10
2019-04-14T07:36:13.785Z,58.20
2019-04-14T07:38:49.814Z,56.00
2019-04-14T07:41:19.967Z,55.40
2019-04-14T07:43:50.121Z,53.80
2019-04-14T07:46:20.261Z,50.90
2019-04-14T07:48:50.413Z,50.30
2019-04-14T07:51:26.511Z,49.40
2019-04-14T07:54:02.503Z,47.70
2019-04-14T07:56:47.745Z,42.90
2019-04-14T07:59:20.786Z,40.50
2019-04-14T08:01:53.665Z,39.70
2019-04-14T08:04:29.906Z,39.20
2019-04-14T08:06:58.695Z,39.10
2019-04-14T08:09:27.060Z,37.80
2019-04-14T08:11:55.529Z,35.90
2019-04-14T08:14:24.014Z,33.50
2019-04-14T08:16:52.566Z,34.30
2019-04-14T08:19:21.037Z,34.10
2019-04-14T08:21:49.494Z,34.30
2019-04-14T08:24:18.052Z,36.30
2019-04-14T08:26:46.540Z,36.90
2019-04-14T08:29:15.065Z,37.70
2019-04-14T08:31:43.489Z,38.70
2019-04-14T08:34:12.002Z,40.10
2019-04-14T08:36:40.559Z,39.20
2019-04-14T08:39:09.047Z,36.10
2019-04-14T08:41:41.886Z,32.80
2019-04-14T08:44:18.024Z,30.60
2019-04-14T08:47:02.829Z,27.90
2019-04-14T08:49:41.927Z,26.70
2019-04-14T08:52:20.857Z,27.30
2019-04-14T08:54:59.701Z,28.00
2019-04-14T08:57:45.144Z,28.70
2019-04-14T09:00:33.543Z,29.10
2019-04-14T09:03:20.280Z,29.90
2019-04-14T09:05:59.761Z,30.00
2019-04-14T09:08:30.004Z,29.90
2019-04-14T09:11:08.511Z,29.60
2019-04-14T09:13:37.104Z,28.40
2019-04-14T09:16:05.498Z,28.70
2019-04-14T09:18:34.129Z,27.90
2019-04-14T09:21:02.687Z,27.60
2019-04-14T09:23:31.188Z,28.10
2019-04-14T09:25:59.880Z,27.80
2019-04-14T09:28:28.740Z,28.00
2019-04-14T09:30:57.270Z,28.70
2019-04-14T09:33:25.962Z,29.20
2019-04-14T09:35:54.499Z,28.90
2019-04-14T09:38:22.932Z,28.10
2019-04-14T09:40:51.403Z,28.60
2019-04-14T09:43:19.842Z,28.60
2019-04-14T09:45:48.295Z,30.00
2019-04-14T09:48:16.855Z,29.90
2019-04-14T09:50:45.375Z,29.90
2019-04-14T09:53:14.658Z,29.50
2019-04-14T09:55:43.216Z,28.70
2019-04-14T09:58:11.651Z,28.40
2019-04-14T10:00:41.045Z,28.30
2019-04-14T10:03:09.903Z,28.80
2019-04-14T10:05:38.726Z,28.70
2019-04-14T10:08:07.385Z,27.80
2019-04-14T10:10:35.851Z,28.30
2019-04-14T10:13:04.427Z,28.40
2019-04-14T10:15:33.231Z,28.00
2019-04-14T10:18:01.644Z,28.00
2019-04-14T10:20:30.235Z,27.50
2019-04-14T10:22:58.625Z,26.30
2019-04-14T10:25:27.310Z,26.10
2019-04-14T10:27:57.868Z,25.10
2019-04-14T10:30:26.542Z,26.30
2019-04-14T10:32:55.040Z,27.10
2019-04-14T10:35:23.553Z,28.00
2019-04-14T10:37:52.024Z,27.50
2019-04-14T10:40:22.415Z,27.40
2019-04-14T10:42:50.742Z,27.40
2019-04-14T10:45:19.293Z,27.60
2019-04-14T10:47:49.088Z,27.50
2019-04-14T10:50:29.860Z,26.60
2019-04-14T10:52:47.944Z,27.00
2019-04-14T10:55:17.833Z,27.20
2019-04-14T10:57:46.368Z,27.50
2019-04-14T11:00:16.466Z,28.60
2019-04-14T11:02:45.943Z,29.20
2019-04-14T11:05:14.456Z,29.30
2019-04-14T11:07:44.328Z,32.60
2019-04-14T11:10:12.844Z,33.20
2019-04-14T11:12:41.310Z,33.10
2019-04-14T11:15:09.783Z,31.90
2019-04-14T11:17:38.316Z,30.40
2019-04-14T11:20:07.556Z,30.70
2019-04-14T11:22:36.045Z,31.00
2019-04-14T11:25:06.655Z,31.10
2019-04-14T11:27:35.074Z,31.10
2019-04-14T11:30:04.822Z,32.30
2019-04-14T11:32:51.211Z,30.90
2019-04-14T11:35:21.525Z,30.60
2019-04-14T11:37:51.564Z,30.30
2019-04-14T11:40:24.664Z,30.10
2019-04-14T11:42:53.163Z,30.20
2019-04-14T11:45:25.181Z,29.80
2019-04-14T11:47:53.627Z,29.30
2019-04-14T11:50:22.042Z,29.90
2019-04-14T11:52:50.580Z,29.20
2019-04-14T11:55:20.702Z,30.00
2019-04-14T11:57:49.171Z,29.90
2019-04-14T12:00:36.151Z,29.80
2019-04-14T12:03:09.016Z,29.30
2019-04-14T12:05:40.376Z,31.50
2019-04-14T12:08:13.388Z,31.80
2019-04-14T12:10:41.916Z,32.60
2019-04-14T12:13:11.897Z,32.10
2019-04-14T12:15:41.147Z,32.00
2019-04-14T12:18:10.200Z,32.70
2019-04-14T12:20:39.202Z,33.10
2019-04-14T12:23:07.791Z,31.80
2019-04-14T12:25:37.713Z,31.10
2019-04-14T12:28:06.973Z,31.90
2019-04-14T12:30:37.752Z,32.20
2019-04-14T12:33:05.683Z,32.70
2019-04-14T12:35:34.234Z,32.50
2019-04-14T12:38:02.783Z,32.90
2019-04-14T12:40:32.026Z,33.00
2019-04-14T12:43:18.698Z,31.20
2019-04-14T12:45:57.820Z,31.10
2019-04-14T12:48:33.670Z,31.40
2019-04-14T12:51:20.650Z,32.20
2019-04-14T12:53:49.378Z,32.10
2019-04-14T12:56:19.527Z,33.00
2019-04-14T12:58:49.680Z,35.10
2019-04-14T13:01:19.834Z,37.80
2019-04-14T13:03:48.818Z,39.90
2019-04-14T13:06:17.405Z,40.70
2019-04-14T13:08:45.821Z,41.20
2019-04-14T13:11:15.363Z,41.20
2019-04-14T13:13:44.526Z,43.20
2019-04-14T13:16:14.240Z,44.20
2019-04-14T13:18:42.695Z,44.60
2019-04-14T13:21:12.850Z,43.70
2019-04-14T13:23:41.349Z,43.20
2019-04-14T13:26:10.040Z,42.60
2019-04-14T13:28:38.739Z,42.90
2019-04-14T13:31:07.701Z,43.20
2019-04-14T13:33:36.169Z,44.00
2019-04-14T13:36:07.147Z,43.60
2019-04-14T13:38:35.617Z,43.60
2019-04-14T13:41:04.095Z,43.30
2019-04-14T13:43:32.636Z,42.90
2019-04-14T13:46:01.054Z,42.50
2019-04-14T13:48:29.548Z,43.10
2019-04-14T13:50:57.991Z,43.30
2019-04-14T13:53:26.401Z,43.70
2019-04-14T13:55:55.819Z,43.40
2019-04-14T13:58:24.405Z,44.20
2019-04-14T14:00:53.674Z,43.50
2019-04-14T14:03:22.087Z,43.80
2019-04-14T14:05:50.559Z,43.80
2019-04-14T14:08:19.911Z,43.80
2019-04-14T14:10:48.315Z,43.80
2019-04-14T14:13:18.494Z,43.70
2019-04-14T14:16:04.942Z,44.10
2019-04-14T14:18:35.102Z,43.90
2019-04-14T14:21:10.756Z,43.50
2019-04-14T14:23:49.894Z,43.40
2019-04-14T14:26:19.934Z,43.00
2019-04-14T14:28:48.613Z,43.40
2019-04-14T14:31:18.472Z,44.10
2019-04-14T14:33:46.933Z,43.80
2019-04-14T14:36:15.361Z,42.30
2019-04-14T14:38:44.102Z,41.70
2019-04-14T14:41:14.228Z,41.00
2019-04-14T14:43:42.650Z,41.40
2019-04-14T14:46:19.925Z,41.20
2019-04-14T14:48:50.004Z,41.00
2019-04-14T14:51:32.290Z,41.00
2019-04-14T14:54:01.015Z,41.10
2019-04-14T14:56:29.415Z,41.80
2019-04-14T14:58:57.884Z,41.50
2019-04-14T15:01:26.494Z,41.80
2019-04-14T15:03:54.998Z,41.60
2019-04-14T15:06:23.673Z,41.60
2019-04-14T15:08:52.105Z,41.20
2019-04-14T15:11:20.677Z,41.50
2019-04-14T15:13:49.902Z,41.10
2019-04-14T15:16:18.658Z,41.40
2019-04-14T15:18:47.288Z,42.20
2019-04-14T15:21:15.873Z,43.50
2019-04-14T15:23:44.267Z,42.70
2019-04-14T15:26:14.824Z,43.30
2019-04-14T15:28:43.288Z,42.60
2019-04-14T15:31:11.857Z,45.40
2019-04-14T15:33:40.300Z,48.00
2019-04-14T15:36:08.741Z,49.30
2019-04-14T15:38:37.240Z,50.00
2019-04-14T15:41:05.846Z,50.70
2019-04-14T15:43:34.978Z,50.90
2019-04-14T15:46:04.315Z,50.70
2019-04-14T15:48:32.851Z,50.60
2019-04-14T15:51:01.397Z,50.20
2019-04-14T15:53:37.936Z,49.80
2019-04-14T15:56:00.343Z,50.40
2019-04-14T15:58:36.227Z,50.40
2019-04-14T16:01:16.248Z,50.50
2019-04-14T16:03:46.348Z,51.20
2019-04-14T16:06:25.344Z,51.20
2019-04-14T16:09:07.237Z,51.40
2019-04-14T16:11:46.583Z,51.30
2019-04-14T16:14:16.881Z,51.40
2019-04-14T16:16:56.139Z,51.70
2019-04-14T16:19:44.316Z,51.70
2019-04-14T16:22:12.974Z,52.00
2019-04-14T16:24:41.540Z,52.30
2019-04-14T16:27:23.886Z,53.20
2019-04-14T16:30:09.424Z,52.80
2019-04-14T16:32:39.493Z,52.90
2019-04-14T16:35:09.594Z,53.50
2019-04-14T16:37:38.131Z,53.80
2019-04-14T16:40:06.785Z,54.00
2019-04-14T16:42:35.358Z,54.40
2019-04-14T16:45:05.667Z,54.90
2019-04-14T16:47:36.251Z,54.80
2019-04-14T16:50:06.640Z,55.00
2019-04-14T16:52:45.800Z,55.20
2019-04-14T16:55:21.570Z,55.20
2019-04-14T16:58:04.761Z,55.70
2019-04-14T17:00:39.257Z,56.30
2019-04-14T17:03:07.753Z,56.60
2019-04-14T17:05:38.889Z,56.90
2019-04-14T17:08:06.271Z,57.10
2019-04-14T17:10:34.748Z,57.70
2019-04-14T17:13:03.439Z,58.10
2019-04-14T17:15:36.618Z,58.00
2019-04-14T17:18:25.050Z,59.00
2019-04-14T17:21:04.280Z,59.20
2019-04-14T17:23:40.623Z,58.40
2019-04-14T17:26:16.831Z,58.00
2019-04-14T17:28:46.925Z,58.50
2019-04-14T17:31:16.999Z,58.80
2019-04-14T17:34:03.394Z,59.00
2019-04-14T17:36:36.290Z,59.50
2019-04-14T17:39:10.890Z,59.60
2019-04-14T17:41:53.016Z,59.60
2019-04-14T17:44:32.759Z,59.80
2019-04-14T17:47:02.839Z,60.00
2019-04-14T17:49:49.120Z,60.50
2019-04-14T17:52:34.914Z,61.00
2019-04-14T17:55:06.441Z,61.20
2019-04-14T17:57:53.632Z,61.70
2019-04-14T18:00:32.728Z,61.80
2019-04-14T18:03:02.802Z,62.20
2019-04-14T18:05:51.266Z,63.00
2019-04-14T18:08:21.368Z,63.40
2019-04-14T18:11:08.730Z,63.90
2019-04-14T18:13:52.870Z,64.70
2019-04-14T18:16:22.925Z,66.10
2019-04-14T18:18:56.548Z,65.50
2019-04-14T18:21:24.984Z,65.10
2019-04-14T18:23:53.752Z,66.20
2019-04-14T18:26:22.293Z,66.30
2019-04-14T18:28:55.316Z,66.60
2019-04-14T18:31:34.436Z,67.00
2019-04-14T18:34:19.232Z,67.60
2019-04-14T18:37:01.405Z,68.40
2019-04-14T18:39:49.705Z,69.00
2019-04-14T18:42:20.380Z,69.30
2019-04-14T18:45:07.094Z,69.60
2019-04-14T18:47:43.789Z,69.80
2019-04-14T18:50:23.199Z,69.00
2019-04-14T18:53:05.599Z,69.20
2019-04-14T18:55:50.430Z,68.70
2019-04-14T18:58:37.020Z,68.70
2019-04-14T19:01:11.035Z,68.20
2019-04-14T19:03:39.637Z,67.60
2019-04-14T19:06:09.620Z,66.90
2019-04-14T19:08:38.816Z,66.40
2019-04-14T19:11:16.211Z,66.30
2019-04-14T19:13:52.384Z,66.20
2019-04-14T19:16:39.173Z,65.90
2019-04-14T19:19:04.611Z,65.70
2019-04-14T19:21:35.204Z,65.20
2019-04-14T19:24:03.862Z,64.80
2019-04-14T19:26:32.330Z,63.70
2019-04-14T19:29:02.369Z,62.30
2019-04-14T19:31:31.007Z,61.70
2019-04-14T19:34:00.020Z,61.10
2019-04-14T19:36:28.521Z,60.70
2019-04-14T19:38:58.131Z,60.30
2019-04-14T19:41:26.671Z,60.30
2019-04-14T19:43:55.282Z,60.30
2019-04-14T19:46:23.894Z,60.20
2019-04-14T19:48:52.394Z,60.10
2019-04-14T19:51:20.907Z,60.10
2019-04-14T19:53:49.357Z,60.10
2019-04-14T19:56:17.907Z,60.00
2019-04-14T19:58:48.351Z,60.00
2019-04-14T20:01:16.941Z,59.90
2019-04-14T20:03:45.659Z,60.00
2019-04-14T20:06:15.162Z,59.90
2019-04-14T20:08:43.660Z,60.00
2019-04-14T20:11:12.130Z,60.00
2019-04-14T20:13:45.239Z,59.90
2019-04-14T20:16:27.226Z,59.90
2019-04-14T20:19:10.604Z,59.60
2019-04-14T20:21:38.180Z,59.50
2019-04-14T20:24:10.990Z,59.60
2019-04-14T20:26:41.150Z,60.20
2019-04-14T20:29:14.442Z,60.30
2019-04-14T20:31:45.056Z,60.80
2019-04-14T20:34:13.618Z,61.60
2019-04-14T20:36:42.097Z,61.50
2019-04-14T20:39:12.148Z,61.80
2019-04-14T20:41:41.173Z,62.00
2019-04-14T20:44:09.579Z,62.10
2019-04-14T20:46:38.048Z,62.20
2019-04-14T20:49:06.540Z,62.30
2019-04-14T20:51:35.440Z,62.50
2019-04-14T20:54:05.558Z,62.60
2019-04-14T20:56:34.034Z,62.90
2019-04-14T20:59:02.943Z,63.40
2019-04-14T21:01:33.150Z,63.40
2019-04-14T21:04:09.107Z,63.40
2019-04-14T21:06:56.453Z,63.20
2019-04-14T21:09:35.951Z,63.00
2019-04-14T21:12:08.725Z,62.60
2019-04-14T21:14:44.854Z,61.60
2019-04-14T21:17:29.873Z,61.10
2019-04-14T21:20:08.991Z,60.70
2019-04-14T21:22:44.882Z,60.50
2019-04-14T21:25:21.635Z,60.10
2019-04-14T21:28:11.087Z,59.90
2019-04-14T21:30:41.498Z,59.90
2019-04-14T21:33:17.312Z,59.80
2019-04-14T21:35:59.551Z,59.90
2019-04-14T21:38:42.090Z,59.90
2019-04-14T21:41:15.128Z,60.00
2019-04-14T21:43:43.723Z,60.30
2019-04-14T21:46:12.118Z,60.40
2019-04-14T21:48:40.614Z,60.20
2019-04-14T21:51:09.054Z,60.20
2019-04-14T21:53:37.587Z,60.00
2019-04-14T21:56:13.153Z,60.00
2019-04-14T21:58:46.682Z,60.00
2019-04-14T22:01:19.986Z,59.90
2019-04-14T22:03:55.936Z,60.00
2019-04-14T22:06:34.765Z,60.10
2019-04-14T22:09:05.130Z,60.10
2019-04-14T22:11:34.751Z,60.20
2019-04-14T22:14:03.215Z,60.40
2019-04-14T22:16:33.691Z,60.50
2019-04-14T22:19:02.471Z,60.60
2019-04-14T22:21:31.056Z,60.70
2019-04-14T22:24:01.945Z,60.80
2019-04-14T22:26:30.777Z,61.10
2019-04-14T22:29:02.056Z,61.40
2019-04-14T22:31:29.389Z,61.90
2019-04-14T22:33:58.050Z,62.90
2019-04-14T22:36:26.516Z,62.40
2019-04-14T22:38:56.637Z,62.80
2019-04-14T22:41:27.232Z,62.70
2019-04-14T22:43:57.167Z,62.70
2019-04-14T22:46:26.024Z,62.50
2019-04-14T22:48:54.521Z,62.30
2019-04-14T22:51:23.106Z,62.10
2019-04-14T22:53:51.603Z,62.10
2019-04-14T22:56:20.429Z,62.10
2019-04-14T22:58:48.911Z,62.10
2019-04-14T23:01:19.935Z,62.20
2019-04-14T23:03:50.778Z,62.30
2019-04-14T23:06:20.902Z,62.50
2019-04-14T23:08:51.059Z,62.80
2019-04-14T23:11:38.757Z,62.90
2019-04-14T23:14:27.068Z,63.20
2019-04-14T23:17:15.275Z,62.80
2019-04-14T23:19:46.689Z,63.70
2019-04-14T23:22:29.023Z,64.10
2019-04-14T23:24:58.593Z,64.20
2019-04-14T23:27:27.442Z,64.40
2019-04-14T23:29:56.239Z,64.50
2019-04-14T23:32:24.791Z,64.70
2019-04-14T23:34:53.294Z,64.60
2019-04-14T23:37:23.182Z,64.70
2019-04-14T23:39:51.654Z,64.70
2019-04-14T23:42:20.089Z,64.90
2019-04-14T23:44:48.455Z,64.80
2019-04-14T23:47:16.874Z,65.00
2019-04-14T23:49:46.580Z,65.10
2019-04-14T23:52:16.191Z,65.90
2019-04-14T23:54:44.818Z,65.20
2019-04-14T23:57:13.310Z,65.40
2019-04-14T23:59:41.841Z,65.70
